createdAt,value
2022-08-16T00:00:04.116Z,100208.28
2022-08-16T00:05:10.946Z,100189.06
2022-08-16T00:10:20.739Z,100187.22
2022-08-16T00:15:51.069Z,100196.00
2022-08-16T00:20:54.097Z,100196.03
2022-08-16T00:26:33.321Z,100199.63
2022-08-16T00:31:17.695Z,100209.47
2022-08-16T00:36:26.804Z,100203.59
2022-08-16T00:41:31.990Z,100231.75
2022-08-16T00:47:09.909Z,100221.94
2022-08-16T00:52:29.472Z,100209.06
2022-08-16T00:57:44.542Z,100209.38
2022-08-16T01:02:57.604Z,100201.69
2022-08-16T01:07:59.771Z,100209.53
2022-08-16T01:13:15.157Z,100226.31
2022-08-16T01:18:40.659Z,100229.72
2022-08-16T01:24:54.014Z,100241.00
2022-08-16T01:30:21.888Z,100236.59
2022-08-16T01:35:44.065Z,100247.16
2022-08-16T01:40:47.621Z,100257.84
2022-08-16T01:45:57.764Z,100260.50
2022-08-16T01:51:09.465Z,100261.19
2022-08-16T01:56:24.900Z,100259.22
2022-08-16T02:01:28.131Z,100243.34
2022-08-16T02:06:34.593Z,100249.47
2022-08-16T02:11:48.110Z,100260.03
2022-08-16T02:16:58.433Z,100262.63
2022-08-16T02:22:09.095Z,100256.47
2022-08-16T02:27:25.956Z,100262.81
2022-08-16T02:32:50.235Z,100258.44
2022-08-16T02:37:52.369Z,100256.78
2022-08-16T02:42:55.807Z,100262.84
2022-08-16T02:48:01.655Z,100265.44
2022-08-16T02:53:23.554Z,100269.81
2022-08-16T02:58:26.381Z,100262.00
2022-08-16T03:04:39.426Z,100258.53
2022-08-16T03:08:53.249Z,100270.63
2022-08-16T03:13:56.638Z,100282.94
2022-08-16T03:18:58.660Z,100272.53
2022-08-16T03:24:03.970Z,100273.56
2022-08-16T03:29:05.908Z,100284.13
2022-08-16T03:34:09.329Z,100272.06
2022-08-16T03:39:15.094Z,100270.41
2022-08-16T03:44:43.635Z,100287.06
2022-08-16T03:49:44.693Z,100291.25
2022-08-16T03:54:53.627Z,100277.38
2022-08-16T04:00:00.098Z,100301.06
2022-08-16T04:05:01.986Z,100285.44
2022-08-16T04:10:35.982Z,100295.13
2022-08-16T04:15:32.373Z,100296.91
2022-08-16T04:20:37.067Z,100306.31
2022-08-16T04:25:39.189Z,100301.94
2022-08-16T04:30:42.474Z,100306.06
2022-08-16T04:35:49.441Z,100299.91
2022-08-16T04:40:51.993Z,100307.06
2022-08-16T04:46:00.914Z,100302.59
2022-08-16T04:51:07.901Z,100312.19
2022-08-16T04:56:14.245Z,100306.84
2022-08-16T05:01:18.937Z,100323.31
2022-08-16T05:06:20.863Z,100319.72
2022-08-16T05:11:42.602Z,100312.94
2022-08-16T05:16:44.618Z,100318.78
2022-08-16T05:21:46.398Z,100303.84
2022-08-16T05:26:51.599Z,100324.78
2022-08-16T05:31:54.344Z,100316.84
2022-08-16T05:36:57.440Z,100317.78
2022-08-16T05:42:00.557Z,100318.53
2022-08-16T05:47:02.469Z,100309.75
2022-08-16T05:52:11.789Z,100326.81
2022-08-16T05:57:18.746Z,100315.16
2022-08-16T06:02:24.602Z,100319.47
2022-08-16T06:07:32.170Z,100304.94
2022-08-16T06:12:34.034Z,100283.72
2022-08-16T06:17:43.246Z,100297.59
2022-08-16T06:22:57.570Z,100268.53
2022-08-16T06:28:01.209Z,100308.25
2022-08-16T06:33:12.395Z,100298.47
2022-08-16T06:38:33.039Z,100310.09
2022-08-16T06:43:36.744Z,100315.66
2022-08-16T06:48:42.695Z,100324.06
2022-08-16T06:53:45.008Z,100327.94
2022-08-16T06:58:46.823Z,100329.41
2022-08-16T07:03:55.269Z,100328.44
2022-08-16T07:08:59.613Z,100331.63
2022-08-16T07:14:24.256Z,100331.94
2022-08-16T07:19:33.479Z,100334.84
2022-08-16T07:24:45.974Z,100337.13
2022-08-16T07:29:48.271Z,100336.97
2022-08-16T07:34:50.263Z,100342.50
2022-08-16T07:39:54.787Z,100348.69
2022-08-16T07:44:58.020Z,100352.78
2022-08-16T07:50:05.311Z,100356.63
2022-08-16T07:55:13.933Z,100367.38
2022-08-16T08:00:18.411Z,100352.72
2022-08-16T08:05:35.345Z,100366.16
2022-08-16T08:10:38.874Z,100339.88
2022-08-16T08:15:40.586Z,100363.59
2022-08-16T08:20:59.295Z,100368.44
2022-08-16T08:26:02.022Z,100370.34
2022-08-16T08:31:04.353Z,100383.41
2022-08-16T08:36:08.350Z,100396.16
2022-08-16T08:41:11.243Z,100377.81
2022-08-16T08:46:18.280Z,100387.34
2022-08-16T08:51:25.377Z,100394.16
2022-08-16T08:56:34.897Z,100379.41
2022-08-16T09:01:42.579Z,100398.22
2022-08-16T09:06:45.561Z,100386.53
2022-08-16T09:11:53.524Z,100381.34
2022-08-16T09:17:03.849Z,100392.19
2022-08-16T09:22:19.797Z,100386.22
2022-08-16T09:27:25.356Z,100394.28
2022-08-16T09:32:31.515Z,100393.06
2022-08-16T09:37:36.799Z,100397.19
2022-08-16T09:42:55.994Z,100397.31
2022-08-16T09:48:00.547Z,100382.50
2022-08-16T09:53:06.840Z,100389.13
2022-08-16T09:58:10.614Z,100380.22
2022-08-16T10:03:12.904Z,100380.31
2022-08-16T10:08:26.754Z,100382.00
2022-08-16T10:13:31.318Z,100387.03
2022-08-16T10:19:00.733Z,100384.63
2022-08-16T10:23:56.781Z,100381.50
2022-08-16T10:28:58.514Z,100382.94
2022-08-16T10:34:01.615Z,100383.13
2022-08-16T10:39:05.287Z,100392.06
2022-08-16T10:44:10.522Z,100388.22
2022-08-16T10:49:16.659Z,100386.84
2022-08-16T10:54:29.153Z,100386.91
2022-08-16T10:59:47.038Z,100390.03
2022-08-16T11:05:11.864Z,100368.69
2022-08-16T11:10:20.375Z,100373.56
2022-08-16T11:15:24.495Z,100385.41
2022-08-16T11:20:49.116Z,100382.97
2022-08-16T11:26:07.491Z,100376.03
2022-08-16T11:31:13.516Z,100370.03
2022-08-16T11:36:24.799Z,100383.06
2022-08-16T11:41:33.317Z,100377.31
2022-08-16T11:46:44.973Z,100383.06
2022-08-16T11:51:50.004Z,100377.84
2022-08-16T11:56:57.293Z,100387.84
2022-08-16T12:02:04.438Z,100384.09
2022-08-16T12:07:23.763Z,100361.75
2022-08-16T12:12:25.860Z,100384.97
2022-08-16T12:17:32.434Z,100393.56
2022-08-16T12:22:36.693Z,100377.25
2022-08-16T12:27:39.290Z,100381.13
2022-08-16T12:32:42.175Z,100377.34
2022-08-16T12:37:47.230Z,100376.47
2022-08-16T12:42:53.609Z,100375.81
2022-08-16T12:48:32.696Z,100386.63
2022-08-16T12:53:39.852Z,100367.84
2022-08-16T12:58:50.354Z,100378.16
2022-08-16T13:04:20.800Z,100368.44
2022-08-16T13:09:26.055Z,100364.03
2022-08-16T13:14:41.308Z,100366.13
2022-08-16T13:25:09.028Z,100365.69
2022-08-16T13:30:36.501Z,100378.63
2022-08-16T13:35:35.021Z,100367.31
2022-08-16T13:40:36.838Z,100377.84
2022-08-16T13:45:44.642Z,100338.59
2022-08-16T13:50:49.960Z,100379.56
2022-08-16T13:55:59.017Z,100374.31
2022-08-16T14:01:03.232Z,100374.41
2022-08-16T14:06:05.434Z,100372.97
2022-08-16T14:11:11.751Z,100367.94
2022-08-16T14:16:24.116Z,100369.50
2022-08-16T14:21:35.174Z,100363.94
2022-08-16T14:26:37.295Z,100372.34
2022-08-16T14:31:39.712Z,100378.00
2022-08-16T14:36:42.793Z,100368.91
2022-08-16T14:41:45.198Z,100362.97
2022-08-16T14:46:47.101Z,100357.56
2022-08-16T14:51:48.956Z,100354.44
2022-08-16T14:56:54.838Z,100367.31
2022-08-16T15:02:00.524Z,100356.78
2022-08-16T15:07:02.680Z,100359.94
2022-08-16T15:12:27.162Z,100364.75
2022-08-16T15:17:37.303Z,100355.44
2022-08-16T15:22:45.987Z,100357.94
2022-08-16T15:27:55.459Z,100346.72
2022-08-16T15:33:08.288Z,100361.44
2022-08-16T15:38:56.783Z,100350.03
2022-08-16T15:43:39.950Z,100356.88
2022-08-16T15:48:42.214Z,100342.97
2022-08-16T15:53:46.605Z,100350.91
2022-08-16T15:59:07.553Z,100358.44
2022-08-16T16:04:10.119Z,100362.25
2022-08-16T16:09:12.098Z,100356.56
2022-08-16T16:14:16.463Z,100377.34
2022-08-16T16:19:21.249Z,100369.75
2022-08-16T16:24:24.028Z,100337.97
2022-08-16T16:29:36.991Z,100365.41
2022-08-16T16:34:43.072Z,100368.16
2022-08-16T16:39:45.214Z,100377.53
2022-08-16T16:44:50.896Z,100377.47
2022-08-16T16:49:53.848Z,100390.09
2022-08-16T16:54:57.442Z,100384.63
2022-08-16T16:59:59.222Z,100392.69
2022-08-16T17:05:08.481Z,100391.38
2022-08-16T17:10:11.001Z,100383.63
2022-08-16T17:15:14.867Z,100414.91
2022-08-16T17:20:18.451Z,100405.34
2022-08-16T17:25:22.920Z,100406.50
2022-08-16T17:30:44.936Z,100418.91
2022-08-16T17:35:54.925Z,100412.38
2022-08-16T17:40:59.501Z,100425.94
2022-08-16T17:46:03.292Z,100414.91
2022-08-16T17:51:06.785Z,100436.16
2022-08-16T17:56:10.306Z,100445.84
2022-08-16T18:01:13.184Z,100472.06
2022-08-16T18:06:16.650Z,100459.41
2022-08-16T18:11:26.037Z,100455.69
2022-08-16T18:16:28.347Z,100457.97
2022-08-16T18:21:48.503Z,100452.84
2022-08-16T18:26:50.925Z,100464.47
2022-08-16T18:31:52.705Z,100463.78
2022-08-16T18:36:54.439Z,100459.47
2022-08-16T18:41:56.422Z,100462.28
2022-08-16T18:46:58.148Z,100474.53
2022-08-16T18:52:02.263Z,100468.41
2022-08-16T18:57:07.836Z,100470.25
2022-08-16T19:02:09.847Z,100491.38
2022-08-16T19:07:31.788Z,100480.28
2022-08-16T19:12:37.988Z,100490.81
2022-08-16T19:17:46.112Z,100491.03
2022-08-16T19:23:05.345Z,100491.19
2022-08-16T19:28:08.609Z,100489.59
2022-08-16T19:33:31.019Z,100499.25
2022-08-16T19:38:32.770Z,100507.38
2022-08-16T19:43:34.870Z,100514.56
2022-08-16T19:48:37.323Z,100509.34
2022-08-16T19:53:39.031Z,100506.97
2022-08-16T19:58:56.048Z,100510.44
2022-08-16T20:03:58.046Z,100501.63
2022-08-16T20:09:03.459Z,100509.66
2022-08-16T20:14:05.589Z,100517.69
2022-08-16T20:19:07.399Z,100505.84
2022-08-16T20:24:32.993Z,100526.81
2022-08-16T20:29:30.991Z,100530.44
2022-08-16T20:34:33.589Z,100526.41
2022-08-16T20:39:35.380Z,100525.50
2022-08-16T20:44:37.275Z,100534.28
2022-08-16T20:49:39.010Z,100527.69
2022-08-16T20:54:42.074Z,100541.75
2022-08-16T20:59:49.849Z,100558.50
2022-08-16T21:04:52.527Z,100540.97
2022-08-16T21:09:54.278Z,100534.94
2022-08-16T21:14:56.035Z,100516.28
2022-08-16T21:19:57.825Z,100537.41
2022-08-16T21:25:00.009Z,100529.53
2022-08-16T21:30:02.103Z,100518.34
2022-08-16T21:35:08.905Z,100537.72
2022-08-16T21:40:12.381Z,100538.28
2022-08-16T21:45:14.730Z,100538.31
2022-08-16T21:50:16.875Z,100538.13
2022-08-16T21:55:18.934Z,100519.94
2022-08-16T22:00:20.809Z,100534.75
2022-08-16T22:05:24.245Z,100544.41
2022-08-16T22:11:04.089Z,100549.06
2022-08-16T22:15:49.271Z,100524.88
2022-08-16T22:20:51.377Z,100548.53
2022-08-16T22:25:55.423Z,100560.00
2022-08-16T22:30:57.254Z,100560.25
2022-08-16T22:36:02.238Z,100569.34
2022-08-16T22:41:05.372Z,100572.81
2022-08-16T22:46:07.629Z,100582.53
2022-08-16T22:51:09.462Z,100580.78
2022-08-16T22:56:11.184Z,100576.28
2022-08-16T23:01:15.055Z,100587.78
2022-08-16T23:06:18.273Z,100566.72
2022-08-16T23:11:25.540Z,100567.84
2022-08-16T23:16:34.462Z,100567.13
2022-08-16T23:21:43.742Z,100580.69
2022-08-16T23:26:48.798Z,100565.91
2022-08-16T23:31:53.353Z,100566.72
2022-08-16T23:36:56.790Z,100563.09
2022-08-16T23:41:58.752Z,100558.88
2022-08-16T23:47:00.512Z,100559.09
2022-08-16T23:52:11.951Z,100542.44
2022-08-16T23:57:13.726Z,100553.94
